createdAt,value
2023-03-10T00:01:41.205Z,5.10
2023-03-10T00:04:09.979Z,3.00
2023-03-10T00:06:37.967Z,6.40
2023-03-10T00:09:04.920Z,3.50
2023-03-10T00:11:32.025Z,3.40
2023-03-10T00:13:59.325Z,3.70
2023-03-10T00:16:28.734Z,3.10
2023-03-10T00:18:56.093Z,1.60
2023-03-10T00:21:25.503Z,2.50
2023-03-10T00:23:52.754Z,1.50
2023-03-10T00:26:20.935Z,2.50
2023-03-10T00:28:48.788Z,3.10
2023-03-10T00:31:18.557Z,2.70
2023-03-10T00:33:45.752Z,3.00
2023-03-10T00:36:16.304Z,3.20
2023-03-10T00:38:44.912Z,3.90
2023-03-10T00:41:14.637Z,1.60
2023-03-10T00:43:41.361Z,1.60
2023-03-10T00:46:08.823Z,2.00
2023-03-10T00:48:36.497Z,1.60
2023-03-10T00:51:04.931Z,1.40
2023-03-10T00:53:37.605Z,1.40
2023-03-10T00:56:17.060Z,1.00
2023-03-10T00:58:45.678Z,1.00
2023-03-10T01:01:16.772Z,1.50
2023-03-10T01:03:44.357Z,1.50
2023-03-10T01:06:11.643Z,1.00
2023-03-10T01:08:38.550Z,1.60
2023-03-10T01:11:06.247Z,1.90
2023-03-10T01:13:33.880Z,1.40
2023-03-10T01:16:00.857Z,1.10
2023-03-10T01:18:27.772Z,1.10
2023-03-10T01:20:54.505Z,1.30
2023-03-10T01:23:24.238Z,2.00
2023-03-10T01:25:51.581Z,1.50
2023-03-10T01:28:20.009Z,1.30
2023-03-10T01:30:48.145Z,2.30
2023-03-10T01:33:17.235Z,1.40
2023-03-10T01:35:44.504Z,1.10
2023-03-10T01:38:11.848Z,1.30
2023-03-10T01:40:39.340Z,1.40
2023-03-10T01:43:19.771Z,1.20
2023-03-10T01:45:51.560Z,1.60
2023-03-10T01:48:21.546Z,1.60
2023-03-10T01:50:53.397Z,1.50
2023-03-10T01:53:22.122Z,1.50
2023-03-10T01:55:56.624Z,1.40
2023-03-10T01:58:29.301Z,1.70
2023-03-10T02:00:56.219Z,1.60
2023-03-10T02:03:28.883Z,1.90
2023-03-10T02:06:02.056Z,3.00
2023-03-10T02:08:34.589Z,3.30
2023-03-10T02:11:01.889Z,2.60
2023-03-10T02:13:28.987Z,3.10
2023-03-10T02:15:56.086Z,3.30
2023-03-10T02:18:23.204Z,3.10
2023-03-10T02:21:24.867Z,3.50
2023-03-10T02:24:35.655Z,2.90
2023-03-10T02:27:11.955Z,2.30
2023-03-10T02:30:06.407Z,2.00
2023-03-10T02:32:39.156Z,1.80
2023-03-10T02:35:07.000Z,3.20
2023-03-10T02:37:36.775Z,5.50
2023-03-10T02:40:23.273Z,2.80
2023-03-10T02:42:51.592Z,2.70
2023-03-10T02:45:18.415Z,3.60
2023-03-10T02:47:45.136Z,2.50
2023-03-10T02:50:15.463Z,1.60
2023-03-10T02:52:52.830Z,2.00
2023-03-10T02:55:19.908Z,2.00
2023-03-10T02:57:48.591Z,1.60
2023-03-10T03:00:16.880Z,1.80
2023-03-10T03:02:43.707Z,1.60
2023-03-10T03:05:10.787Z,3.20
2023-03-10T03:07:37.708Z,3.00
2023-03-10T03:10:06.486Z,2.00
2023-03-10T03:12:33.248Z,3.70
2023-03-10T03:15:00.185Z,6.00
2023-03-10T03:17:28.265Z,2.30
2023-03-10T03:19:55.106Z,3.70
2023-03-10T03:22:22.494Z,5.20
2023-03-10T03:24:49.810Z,6.70
2023-03-10T03:27:16.764Z,2.70
2023-03-10T03:29:45.042Z,3.30
2023-03-10T03:32:12.826Z,2.90
2023-03-10T03:34:39.900Z,2.30
2023-03-10T03:37:07.206Z,1.90
2023-03-10T03:39:37.171Z,2.30
2023-03-10T03:42:06.644Z,3.70
2023-03-10T03:44:42.650Z,3.30
2023-03-10T03:47:10.361Z,4.20
2023-03-10T03:49:38.541Z,3.70
2023-03-10T03:52:07.028Z,2.10
2023-03-10T03:54:34.111Z,2.60
2023-03-10T03:57:01.625Z,2.80
2023-03-10T03:59:29.192Z,3.20
2023-03-10T04:01:56.671Z,4.40
2023-03-10T04:04:24.215Z,2.80
2023-03-10T04:06:51.791Z,2.50
2023-03-10T04:09:18.920Z,1.90
2023-03-10T04:11:46.119Z,1.90
2023-03-10T04:14:13.123Z,2.10
2023-03-10T04:16:40.071Z,2.20
2023-03-10T04:19:07.446Z,2.00
2023-03-10T04:21:35.404Z,2.30
2023-03-10T04:24:03.693Z,2.20
2023-03-10T04:26:31.962Z,2.50
2023-03-10T04:28:59.625Z,2.40
2023-03-10T04:31:26.810Z,3.10
2023-03-10T04:33:54.136Z,3.70
2023-03-10T04:36:21.734Z,3.90
2023-03-10T04:38:51.518Z,2.60
2023-03-10T04:41:18.970Z,2.60
2023-03-10T04:43:48.025Z,2.30
2023-03-10T04:46:16.030Z,2.30
2023-03-10T04:48:43.833Z,2.90
2023-03-10T04:51:12.385Z,2.80
2023-03-10T04:53:44.835Z,3.20
2023-03-10T04:56:12.114Z,3.40
2023-03-10T04:58:40.403Z,9.50
2023-03-10T05:01:10.120Z,4.20
2023-03-10T05:03:39.368Z,4.30
2023-03-10T05:06:17.526Z,3.70
2023-03-10T05:08:48.052Z,9.30
2023-03-10T05:11:15.745Z,5.90
2023-03-10T05:13:42.764Z,6.50
2023-03-10T05:16:15.767Z,5.60
2023-03-10T05:18:45.400Z,3.30
2023-03-10T05:21:13.615Z,4.00
2023-03-10T05:23:41.404Z,3.00
2023-03-10T05:26:10.621Z,2.30
2023-03-10T05:28:38.069Z,2.50
2023-03-10T05:31:10.623Z,2.30
2023-03-10T05:33:38.509Z,2.70
2023-03-10T05:36:08.544Z,2.80
2023-03-10T05:38:36.692Z,4.00
2023-03-10T05:41:09.301Z,3.70
2023-03-10T05:43:38.343Z,3.00
2023-03-10T05:46:06.822Z,2.10
2023-03-10T05:48:36.069Z,2.00
2023-03-10T05:51:06.804Z,2.40
2023-03-10T05:53:35.743Z,2.30
2023-03-10T05:56:12.277Z,2.00
2023-03-10T05:58:39.956Z,2.60
2023-03-10T06:01:08.059Z,2.20
2023-03-10T06:03:36.930Z,2.40
2023-03-10T06:06:09.099Z,3.20
2023-03-10T06:08:39.593Z,4.70
2023-03-10T06:11:06.673Z,6.90
2023-03-10T06:13:34.408Z,2.30
2023-03-10T06:16:04.396Z,3.10
2023-03-10T06:18:31.788Z,3.30
2023-03-10T06:20:59.146Z,2.60
2023-03-10T06:23:26.634Z,4.70
2023-03-10T06:26:05.444Z,4.90
2023-03-10T06:28:36.065Z,6.00
2023-03-10T06:31:07.325Z,6.60
2023-03-10T06:33:34.735Z,9.20
2023-03-10T06:36:02.092Z,4.60
2023-03-10T06:38:30.212Z,6.40
2023-03-10T06:40:58.183Z,10.40
2023-03-10T06:43:25.431Z,9.70
2023-03-10T06:45:52.566Z,24.90
2023-03-10T06:48:19.577Z,6.10
2023-03-10T06:50:48.582Z,5.80
2023-03-10T06:53:17.730Z,4.90
2023-03-10T06:55:45.599Z,12.10
2023-03-10T06:58:12.336Z,3.50
2023-03-10T07:00:39.381Z,3.60
2023-03-10T07:03:06.330Z,2.80
2023-03-10T07:05:33.888Z,3.90
2023-03-10T07:08:00.843Z,4.90
2023-03-10T07:10:27.893Z,5.90
2023-03-10T07:12:58.344Z,6.80
2023-03-10T07:15:26.281Z,16.30
2023-03-10T07:17:55.722Z,12.60
2023-03-10T07:20:38.712Z,17.40
2023-03-10T07:23:16.188Z,11.90
2023-03-10T07:25:43.223Z,7.00
2023-03-10T07:28:10.166Z,6.10
2023-03-10T07:30:38.107Z,5.90
2023-03-10T07:33:05.322Z,9.50
2023-03-10T07:35:33.551Z,5.40
2023-03-10T07:38:02.026Z,5.30
2023-03-10T07:40:29.551Z,3.00
2023-03-10T07:42:56.603Z,2.80
2023-03-10T07:45:27.041Z,3.10
2023-03-10T07:47:54.187Z,3.10
2023-03-10T07:50:21.789Z,2.50
2023-03-10T07:52:49.628Z,2.70
2023-03-10T07:55:17.218Z,3.10
2023-03-10T07:57:44.340Z,4.00
2023-03-10T08:00:15.083Z,4.20
2023-03-10T08:02:42.367Z,2.70
2023-03-10T08:05:11.662Z,2.20
2023-03-10T08:07:39.050Z,2.10
2023-03-10T08:10:07.288Z,3.40
2023-03-10T08:12:34.636Z,3.20
2023-03-10T08:15:01.557Z,2.60
2023-03-10T08:17:32.999Z,3.40
2023-03-10T08:20:00.697Z,4.30
2023-03-10T08:22:27.828Z,4.20
2023-03-10T08:24:55.621Z,10.10
2023-03-10T08:27:22.866Z,3.90
2023-03-10T08:29:49.996Z,6.60
2023-03-10T08:32:17.503Z,3.20
2023-03-10T08:34:45.444Z,2.50
2023-03-10T08:37:12.278Z,2.60
2023-03-10T08:39:39.455Z,4.50
2023-03-10T08:42:09.251Z,3.50
2023-03-10T08:44:36.592Z,3.90
2023-03-10T08:47:03.641Z,3.00
2023-03-10T08:49:31.012Z,2.70
2023-03-10T08:51:59.516Z,6.00
2023-03-10T08:54:27.072Z,7.10
2023-03-10T08:56:54.501Z,10.20
2023-03-10T08:59:21.558Z,3.80
2023-03-10T09:01:49.606Z,2.70
2023-03-10T09:04:16.620Z,2.50
2023-03-10T09:06:44.178Z,4.70
2023-03-10T09:09:12.109Z,2.60
2023-03-10T09:11:40.494Z,2.90
2023-03-10T09:14:09.336Z,2.00
2023-03-10T09:16:38.965Z,2.30
2023-03-10T09:19:06.057Z,2.00
2023-03-10T09:21:33.928Z,1.50
2023-03-10T09:24:02.403Z,1.80
2023-03-10T09:26:30.052Z,1.80
2023-03-10T09:28:57.324Z,3.20
2023-03-10T09:31:32.052Z,2.00
2023-03-10T09:34:01.338Z,2.20
2023-03-10T09:36:29.357Z,3.50
2023-03-10T09:38:57.994Z,2.00
2023-03-10T09:41:38.477Z,2.40
2023-03-10T09:44:37.415Z,3.40
2023-03-10T09:47:22.410Z,3.40
2023-03-10T09:50:14.077Z,2.20
2023-03-10T09:53:01.543Z,1.60
2023-03-10T09:55:47.848Z,4.30
2023-03-10T09:58:49.557Z,3.60
2023-03-10T10:01:23.466Z,1.90
2023-03-10T10:04:22.102Z,2.30
2023-03-10T10:06:50.602Z,1.90
2023-03-10T10:09:41.657Z,1.60
2023-03-10T10:12:14.529Z,2.50
2023-03-10T10:14:55.065Z,5.10
2023-03-10T10:18:05.605Z,4.20
2023-03-10T10:23:36.628Z,1.90
2023-03-10T10:26:16.023Z,4.50
2023-03-10T10:28:48.260Z,2.70
2023-03-10T10:31:23.123Z,2.10
2023-03-10T10:34:05.998Z,5.20
2023-03-10T10:36:35.712Z,4.10
2023-03-10T10:39:19.656Z,2.30
2023-03-10T10:41:46.393Z,4.60
2023-03-10T10:44:16.825Z,2.80
2023-03-10T10:46:56.248Z,2.90
2023-03-10T10:49:25.399Z,3.40
2023-03-10T10:52:01.765Z,2.60
2023-03-10T10:54:37.486Z,2.80
2023-03-10T10:57:17.837Z,1.70
2023-03-10T10:59:44.588Z,2.50
2023-03-10T11:02:45.066Z,2.20
2023-03-10T11:05:12.196Z,1.90
2023-03-10T11:07:39.333Z,6.70
2023-03-10T11:10:15.968Z,9.20
2023-03-10T11:12:43.337Z,4.30
2023-03-10T11:15:29.587Z,1.60
2023-03-10T11:18:12.177Z,3.50
2023-03-10T11:21:07.692Z,3.80
2023-03-10T11:24:15.705Z,3.40
2023-03-10T11:26:54.422Z,2.80
2023-03-10T11:29:43.422Z,5.10
2023-03-10T11:32:25.618Z,4.20
2023-03-10T11:34:55.506Z,3.80
2023-03-10T11:37:44.980Z,1.70
2023-03-10T11:40:25.036Z,2.50
2023-03-10T11:43:12.101Z,1.80
2023-03-10T11:45:39.216Z,3.90
2023-03-10T11:48:30.729Z,1.70
2023-03-10T11:51:01.114Z,3.40
2023-03-10T11:53:33.045Z,4.50
2023-03-10T11:56:02.063Z,3.70
2023-03-10T11:58:34.784Z,4.80
2023-03-10T12:01:02.175Z,4.40
2023-03-10T12:04:17.264Z,3.80
2023-03-10T12:07:03.164Z,2.20
2023-03-10T12:09:41.708Z,3.20
2023-03-10T12:12:15.072Z,2.80
2023-03-10T12:14:44.567Z,2.20
2023-03-10T12:17:14.562Z,3.20
2023-03-10T12:20:12.330Z,2.60
2023-03-10T12:22:43.165Z,2.20
2023-03-10T12:25:37.162Z,2.10
2023-03-10T12:28:16.478Z,3.90
2023-03-10T12:30:50.455Z,4.10
2023-03-10T12:33:42.023Z,2.60
2023-03-10T12:36:14.112Z,1.50
2023-03-10T12:38:54.405Z,2.30
2023-03-10T12:41:30.206Z,2.10
2023-03-10T12:44:00.152Z,3.30
2023-03-10T12:46:27.087Z,2.50
2023-03-10T12:49:10.915Z,4.20
2023-03-10T12:51:42.715Z,6.50
2023-03-10T12:54:20.215Z,2.90
2023-03-10T12:56:59.022Z,2.20
2023-03-10T12:59:53.042Z,2.70
2023-03-10T13:02:23.215Z,3.00
2023-03-10T13:04:52.914Z,2.10
2023-03-10T13:07:19.766Z,2.60
2023-03-10T13:09:48.249Z,2.90
2023-03-10T13:12:30.429Z,2.50
2023-03-10T13:15:00.701Z,2.30
2023-03-10T13:17:32.277Z,1.80
2023-03-10T13:20:05.239Z,2.30
2023-03-10T13:22:33.304Z,3.10
2023-03-10T13:25:14.542Z,1.80
2023-03-10T13:27:41.418Z,2.70
2023-03-10T13:30:27.277Z,2.00
2023-03-10T13:33:00.742Z,3.00
2023-03-10T13:35:36.456Z,2.70
2023-03-10T13:38:26.483Z,1.90
2023-03-10T13:40:56.169Z,2.50
2023-03-10T13:43:22.736Z,2.30
2023-03-10T13:45:57.409Z,3.40
2023-03-10T13:48:26.727Z,2.00
2023-03-10T13:51:06.687Z,2.30
2023-03-10T13:53:33.653Z,2.30
2023-03-10T13:56:14.318Z,2.30
2023-03-10T13:58:42.683Z,2.80
2023-03-10T14:01:16.945Z,5.10
2023-03-10T14:03:59.277Z,2.90
2023-03-10T14:06:28.310Z,6.10
2023-03-10T14:08:55.869Z,5.10
2023-03-10T14:11:31.933Z,3.10
2023-03-10T14:14:00.323Z,5.10
2023-03-10T14:16:58.937Z,3.50
2023-03-10T14:19:39.026Z,3.90
2023-03-10T14:22:40.951Z,3.40
2023-03-10T14:25:17.032Z,2.80
2023-03-10T14:27:46.821Z,3.20
2023-03-10T14:30:35.910Z,3.40
2023-03-10T14:33:11.631Z,4.90
2023-03-10T14:35:39.246Z,5.80
2023-03-10T14:38:06.332Z,4.30
2023-03-10T14:40:46.280Z,2.50
2023-03-10T14:43:35.141Z,2.10
2023-03-10T14:46:02.209Z,3.30
2023-03-10T14:48:35.012Z,3.80
2023-03-10T14:51:02.558Z,4.30
2023-03-10T14:53:31.323Z,3.40
2023-03-10T14:56:01.279Z,2.50
2023-03-10T14:58:32.575Z,3.10
2023-03-10T15:01:00.144Z,2.80
2023-03-10T15:03:27.514Z,4.00
2023-03-10T15:05:54.306Z,4.10
2023-03-10T15:08:21.215Z,4.40
2023-03-10T15:10:50.599Z,6.00
2023-03-10T15:13:23.399Z,4.40
2023-03-10T15:15:51.197Z,6.40
2023-03-10T15:18:21.484Z,5.80
2023-03-10T15:20:48.766Z,4.80
2023-03-10T15:23:19.854Z,4.80
2023-03-10T15:25:47.865Z,5.60
2023-03-10T15:28:15.144Z,5.50
2023-03-10T15:30:42.165Z,3.90
2023-03-10T15:33:10.053Z,5.30
2023-03-10T15:35:38.621Z,4.60
2023-03-10T15:38:06.218Z,4.30
2023-03-10T15:40:34.969Z,4.30
2023-03-10T15:43:02.326Z,4.30
2023-03-10T15:45:31.026Z,7.90
2023-03-10T15:47:58.360Z,6.10
2023-03-10T15:50:26.067Z,6.80
2023-03-10T15:52:55.745Z,7.10
2023-03-10T15:55:23.357Z,7.00
2023-03-10T15:57:50.870Z,6.00
2023-03-10T16:00:20.063Z,7.70
2023-03-10T16:02:48.201Z,8.00
2023-03-10T16:05:16.107Z,12.40
2023-03-10T16:07:43.304Z,14.70
2023-03-10T16:10:13.541Z,19.20
2023-03-10T16:12:41.143Z,18.00
2023-03-10T16:15:09.017Z,19.30
2023-03-10T16:17:36.184Z,21.10
2023-03-10T16:20:06.661Z,43.60
2023-03-10T16:22:33.530Z,32.10
2023-03-10T16:25:00.590Z,24.50
2023-03-10T16:27:27.536Z,22.60
2023-03-10T16:29:54.281Z,47.40
2023-03-10T16:32:21.012Z,46.50
2023-03-10T16:34:47.861Z,44.90
2023-03-10T16:37:14.634Z,54.30
2023-03-10T16:39:42.985Z,46.00
2023-03-10T16:42:09.883Z,40.90
2023-03-10T16:44:36.893Z,45.50
2023-03-10T16:47:03.832Z,68.10
2023-03-10T16:49:31.811Z,173.50
2023-03-10T16:51:59.164Z,203.90
2023-03-10T16:54:26.112Z,157.70
2023-03-10T16:56:56.344Z,129.30
2023-03-10T16:59:24.691Z,126.10
2023-03-10T17:01:51.860Z,94.10
2023-03-10T17:04:19.927Z,69.10
2023-03-10T17:06:47.660Z,60.10
2023-03-10T17:09:16.589Z,36.90
2023-03-10T17:11:54.448Z,19.90
2023-03-10T17:14:22.787Z,32.90
2023-03-10T17:16:50.487Z,46.70
2023-03-10T17:19:20.346Z,41.80
2023-03-10T17:21:50.804Z,43.00
2023-03-10T17:24:18.958Z,34.80
2023-03-10T17:26:46.922Z,28.60
2023-03-10T17:29:14.378Z,33.90
2023-03-10T17:31:43.399Z,55.00
2023-03-10T17:34:13.732Z,44.10
2023-03-10T17:36:40.754Z,43.40
2023-03-10T17:39:08.038Z,29.20
2023-03-10T17:41:35.895Z,25.90
2023-03-10T17:44:05.876Z,13.60
2023-03-10T17:46:32.906Z,13.10
2023-03-10T17:49:00.341Z,21.60
2023-03-10T17:51:30.087Z,15.10
2023-03-10T17:54:00.566Z,12.70
2023-03-10T17:56:27.912Z,14.10
2023-03-10T17:58:57.026Z,25.10
2023-03-10T18:01:28.963Z,99.60
2023-03-10T18:03:57.483Z,67.20
2023-03-10T18:06:27.302Z,44.00
2023-03-10T18:08:56.233Z,24.70
2023-03-10T18:11:24.629Z,16.40
2023-03-10T18:13:52.513Z,16.80
2023-03-10T18:16:24.380Z,16.50
2023-03-10T18:18:52.141Z,12.20
2023-03-10T18:21:19.966Z,11.50
2023-03-10T18:23:48.209Z,7.50
2023-03-10T18:26:22.002Z,7.10
2023-03-10T18:28:48.963Z,9.10
2023-03-10T18:31:24.988Z,10.60
2023-03-10T18:33:52.153Z,9.20
2023-03-10T18:36:20.775Z,10.50
2023-03-10T18:38:48.262Z,12.50
2023-03-10T18:41:18.889Z,10.40
2023-03-10T18:43:45.881Z,13.40
2023-03-10T18:46:13.179Z,13.90
2023-03-10T18:48:40.527Z,15.70
2023-03-10T18:51:07.539Z,16.30
2023-03-10T18:53:34.427Z,14.60
2023-03-10T18:56:01.260Z,10.30
2023-03-10T18:58:29.212Z,25.90
2023-03-10T19:00:56.466Z,13.70
2023-03-10T19:03:23.401Z,17.50
2023-03-10T19:05:54.244Z,17.40
2023-03-10T19:08:26.520Z,15.30
2023-03-10T19:10:58.064Z,15.50
2023-03-10T19:13:27.161Z,13.40
2023-03-10T19:15:54.164Z,10.90
2023-03-10T19:18:21.980Z,7.60
2023-03-10T19:20:50.462Z,8.00
2023-03-10T19:23:17.431Z,4.90
2023-03-10T19:25:44.367Z,6.10
2023-03-10T19:28:11.201Z,12.20
2023-03-10T19:30:42.154Z,9.80
2023-03-10T19:33:10.416Z,9.10
2023-03-10T19:35:37.785Z,9.80
2023-03-10T19:38:05.235Z,11.60
2023-03-10T19:40:32.792Z,7.70
2023-03-10T19:42:59.741Z,8.40
2023-03-10T19:45:27.199Z,15.60
2023-03-10T19:47:57.429Z,13.00
2023-03-10T19:50:24.913Z,21.10
2023-03-10T19:52:52.240Z,22.50
2023-03-10T19:55:22.594Z,22.50
2023-03-10T19:57:51.454Z,26.90
2023-03-10T20:00:24.173Z,40.90
2023-03-10T20:02:52.656Z,37.90
2023-03-10T20:05:20.509Z,43.20
2023-03-10T20:07:48.166Z,31.50
2023-03-10T20:10:17.181Z,21.40
2023-03-10T20:12:46.648Z,19.40
2023-03-10T20:15:14.556Z,30.60
2023-03-10T20:17:41.358Z,27.40
2023-03-10T20:20:09.760Z,30.00
2023-03-10T20:22:42.269Z,32.40
2023-03-10T20:25:11.327Z,30.70
2023-03-10T20:27:38.578Z,29.30
2023-03-10T20:30:20.724Z,27.90
2023-03-10T20:32:47.771Z,30.50
2023-03-10T20:35:16.460Z,26.30
2023-03-10T20:37:43.366Z,23.80
2023-03-10T20:40:13.076Z,27.50
2023-03-10T20:42:40.630Z,23.20
2023-03-10T20:45:08.915Z,13.90
2023-03-10T20:47:36.059Z,13.70
2023-03-10T20:50:08.033Z,12.10
2023-03-10T20:52:37.023Z,15.30
2023-03-10T20:55:06.618Z,14.30
2023-03-10T20:57:33.993Z,11.40
2023-03-10T21:00:00.983Z,6.30
2023-03-10T21:02:27.664Z,5.10
2023-03-10T21:04:54.748Z,3.90
2023-03-10T21:07:21.668Z,3.70
2023-03-10T21:09:48.420Z,4.10
2023-03-10T21:12:17.965Z,3.80
2023-03-10T21:14:45.281Z,4.00
2023-03-10T21:17:12.540Z,4.30
2023-03-10T21:19:39.381Z,4.70
2023-03-10T21:22:06.330Z,4.30
2023-03-10T21:24:33.896Z,3.30
2023-03-10T21:27:00.737Z,2.80
2023-03-10T21:29:27.491Z,3.50
2023-03-10T21:31:54.543Z,4.80
2023-03-10T21:34:21.469Z,5.40
2023-03-10T21:36:48.315Z,5.30
2023-03-10T21:39:15.008Z,8.10
2023-03-10T21:41:42.218Z,4.90
2023-03-10T21:44:10.293Z,5.30
2023-03-10T21:46:37.148Z,6.60
2023-03-10T21:49:04.390Z,6.20
2023-03-10T21:51:34.121Z,4.80
2023-03-10T21:54:02.713Z,4.40
2023-03-10T21:56:29.874Z,3.70
2023-03-10T21:58:57.194Z,3.00
2023-03-10T22:01:25.405Z,2.30
2023-03-10T22:03:53.001Z,2.20
2023-03-10T22:06:20.247Z,2.20
2023-03-10T22:08:47.765Z,3.00
2023-03-10T22:11:15.204Z,3.00
2023-03-10T22:13:42.766Z,3.30
2023-03-10T22:16:14.639Z,2.40
2023-03-10T22:18:42.093Z,3.30
2023-03-10T22:21:08.841Z,3.10
2023-03-10T22:23:35.983Z,3.40
2023-03-10T22:26:02.830Z,3.20
2023-03-10T22:28:29.670Z,3.50
2023-03-10T22:30:57.675Z,4.70
2023-03-10T22:33:25.200Z,3.50
2023-03-10T22:35:52.517Z,3.10
2023-03-10T22:38:19.956Z,3.80
2023-03-10T22:40:47.167Z,5.90
2023-03-10T22:43:15.041Z,6.00
2023-03-10T22:45:42.022Z,4.20
2023-03-10T22:48:08.851Z,2.20
2023-03-10T22:50:39.246Z,2.40
2023-03-10T22:53:11.733Z,1.80
2023-03-10T22:55:38.976Z,2.20
2023-03-10T22:58:07.090Z,2.20
2023-03-10T23:00:34.632Z,2.20
2023-03-10T23:03:04.171Z,2.70
2023-03-10T23:05:31.587Z,2.90
2023-03-10T23:07:59.248Z,2.80
2023-03-10T23:10:29.996Z,3.00
2023-03-10T23:13:06.886Z,4.20
2023-03-10T23:15:36.897Z,3.00
2023-03-10T23:18:04.767Z,2.80
2023-03-10T23:20:35.696Z,2.60
2023-03-10T23:23:04.723Z,2.80
2023-03-10T23:25:39.734Z,3.10
2023-03-10T23:28:09.030Z,3.20
2023-03-10T23:30:37.763Z,3.60
2023-03-10T23:33:06.933Z,3.00
2023-03-10T23:35:35.018Z,2.90
2023-03-10T23:38:04.464Z,2.50
2023-03-10T23:40:33.177Z,2.20
2023-03-10T23:43:01.785Z,2.00
2023-03-10T23:45:30.094Z,2.40
2023-03-10T23:47:59.552Z,2.30
2023-03-10T23:50:31.944Z,2.70
2023-03-10T23:52:59.582Z,2.30
2023-03-10T23:55:32.689Z,6.80
2023-03-10T23:57:59.943Z,18.60
